sensor_id;sensor_type;location;lat;lon;timestamp;temperature;humidity
2577;DHT22;1298;51.252;6.802;2023-12-29T00:01:29;11.20;99.90
2577;DHT22;1298;51.252;6.802;2023-12-29T00:04:16;11.20;99.90
2577;DHT22;1298;51.252;6.802;2023-12-29T00:07:02;11.20;99.90
2577;DHT22;1298;51.252;6.802;2023-12-29T00:09:48;11.20;99.90
2577;DHT22;1298;51.252;6.802;2023-12-29T00:12:33;11.20;99.90
2577;DHT22;1298;51.252;6.802;2023-12-29T00:15:19;11.20;99.90
2577;DHT22;1298;51.252;6.802;2023-12-29T00:18:04;11.30;99.90
2577;DHT22;1298;51.252;6.802;2023-12-29T00:20:51;11.20;99.90
2577;DHT22;1298;51.252;6.802;2023-12-29T00:23:37;11.20;99.90
2577;DHT22;1298;51.252;6.802;2023-12-29T00:26:23;11.20;99.90
2577;DHT22;1298;51.252;6.802;2023-12-29T00:29:08;11.30;99.90
2577;DHT22;1298;51.252;6.802;2023-12-29T00:31:54;11.30;99.90
2577;DHT22;1298;51.252;6.802;2023-12-29T00:34:40;11.30;99.90
2577;DHT22;1298;51.252;6.802;2023-12-29T00:37:27;11.30;99.90
2577;DHT22;1298;51.252;6.802;2023-12-29T00:40:12;11.30;99.90
2577;DHT22;1298;51.252;6.802;2023-12-29T00:42:58;11.30;99.90
2577;DHT22;1298;51.252;6.802;2023-12-29T00:45:44;11.30;99.90
2577;DHT22;1298;51.252;6.802;2023-12-29T00:48:29;11.30;99.90
2577;DHT22;1298;51.252;6.802;2023-12-29T00:51:15;11.30;99.90
2577;DHT22;1298;51.252;6.802;2023-12-29T00:54:02;11.30;99.90
2577;DHT22;1298;51.252;6.802;2023-12-29T00:56:48;11.30;99.90
2577;DHT22;1298;51.252;6.802;2023-12-29T00:59:37;11.30;99.90
2577;DHT22;1298;51.252;6.802;2023-12-29T01:02:23;11.30;99.90
2577;DHT22;1298;51.252;6.802;2023-12-29T01:05:08;11.30;99.90
2577;DHT22;1298;51.252;6.802;2023-12-29T01:07:54;11.30;99.90
2577;DHT22;1298;51.252;6.802;2023-12-29T01:10:41;11.30;99.90
2577;DHT22;1298;51.252;6.802;2023-12-29T01:13:26;11.30;99.90
2577;DHT22;1298;51.252;6.802;2023-12-29T01:16:12;11.30;99.90
2577;DHT22;1298;51.252;6.802;2023-12-29T01:18:57;11.30;99.90
2577;DHT22;1298;51.252;6.802;2023-12-29T01:21:43;11.30;99.90
2577;DHT22;1298;51.252;6.802;2023-12-29T01:24:30;11.30;99.90
2577;DHT22;1298;51.252;6.802;2023-12-29T01:27:16;11.30;99.90
2577;DHT22;1298;51.252;6.802;2023-12-29T01:30:03;11.30;99.90
2577;DHT22;1298;51.252;6.802;2023-12-29T01:32:48;11.20;99.90
2577;DHT22;1298;51.252;6.802;2023-12-29T01:35:34;11.20;99.90
2577;DHT22;1298;51.252;6.802;2023-12-29T01:38:19;11.30;99.90
2577;DHT22;1298;51.252;6.802;2023-12-29T01:41:05;11.20;99.90
2577;DHT22;1298;51.252;6.802;2023-12-29T01:44:17;11.20;99.90
2577;DHT22;1298;51.252;6.802;2023-12-29T01:47:10;11.30;99.90
2577;DHT22;1298;51.252;6.802;2023-12-29T01:49:56;11.20;99.90
2577;DHT22;1298;51.252;6.802;2023-12-29T01:52:42;11.20;99.90
2577;DHT22;1298;51.252;6.802;2023-12-29T01:55:29;11.20;99.90
2577;DHT22;1298;51.252;6.802;2023-12-29T01:58:16;11.20;99.90
2577;DHT22;1298;51.252;6.802;2023-12-29T02:01:03;11.20;99.90
2577;DHT22;1298;51.252;6.802;2023-12-29T02:03:50;11.20;99.90
2577;DHT22;1298;51.252;6.802;2023-12-29T02:06:36;11.20;99.90
2577;DHT22;1298;51.252;6.802;2023-12-29T02:09:22;11.20;99.90
2577;DHT22;1298;51.252;6.802;2023-12-29T02:12:08;11.20;99.90
2577;DHT22;1298;51.252;6.802;2023-12-29T02:14:54;11.20;99.90
2577;DHT22;1298;51.252;6.802;2023-12-29T02:17:44;11.10;99.90
2577;DHT22;1298;51.252;6.802;2023-12-29T02:20:31;11.10;99.90
2577;DHT22;1298;51.252;6.802;2023-12-29T02:23:17;11.10;99.90
2577;DHT22;1298;51.252;6.802;2023-12-29T02:26:09;10.90;99.90
2577;DHT22;1298;51.252;6.802;2023-12-29T02:28:59;10.80;99.90
2577;DHT22;1298;51.252;6.802;2023-12-29T02:31:49;10.70;99.90
2577;DHT22;1298;51.252;6.802;2023-12-29T02:34:37;10.70;99.90
2577;DHT22;1298;51.252;6.802;2023-12-29T02:37:23;10.70;99.90
2577;DHT22;1298;51.252;6.802;2023-12-29T02:40:11;10.70;99.90
2577;DHT22;1298;51.252;6.802;2023-12-29T02:42:57;10.70;99.90
2577;DHT22;1298;51.252;6.802;2023-12-29T02:45:43;10.70;99.90
2577;DHT22;1298;51.252;6.802;2023-12-29T02:48:29;10.70;99.90
2577;DHT22;1298;51.252;6.802;2023-12-29T02:51:14;10.60;99.90
2577;DHT22;1298;51.252;6.802;2023-12-29T02:54:00;10.60;99.90
2577;DHT22;1298;51.252;6.802;2023-12-29T02:56:45;10.60;99.90
2577;DHT22;1298;51.252;6.802;2023-12-29T02:59:32;10.50;99.90
2577;DHT22;1298;51.252;6.802;2023-12-29T03:02:18;10.50;99.90
2577;DHT22;1298;51.252;6.802;2023-12-29T03:05:05;10.50;99.90
2577;DHT22;1298;51.252;6.802;2023-12-29T03:07:50;10.50;99.90
2577;DHT22;1298;51.252;6.802;2023-12-29T03:10:36;10.50;99.90
2577;DHT22;1298;51.252;6.802;2023-12-29T03:13:21;10.60;99.90
2577;DHT22;1298;51.252;6.802;2023-12-29T03:16:08;10.60;99.90
2577;DHT22;1298;51.252;6.802;2023-12-29T03:18:54;10.50;99.90
2577;DHT22;1298;51.252;6.802;2023-12-29T03:21:39;10.60;99.90
2577;DHT22;1298;51.252;6.802;2023-12-29T03:24:25;10.60;99.90
2577;DHT22;1298;51.252;6.802;2023-12-29T03:27:11;10.60;99.90
2577;DHT22;1298;51.252;6.802;2023-12-29T03:29:56;10.60;99.90
2577;DHT22;1298;51.252;6.802;2023-12-29T03:32:43;10.60;99.90
2577;DHT22;1298;51.252;6.802;2023-12-29T03:35:29;10.70;99.90
2577;DHT22;1298;51.252;6.802;2023-12-29T03:38:15;10.70;99.90
2577;DHT22;1298;51.252;6.802;2023-12-29T03:41:00;10.70;99.90
2577;DHT22;1298;51.252;6.802;2023-12-29T03:43:46;10.70;99.90
2577;DHT22;1298;51.252;6.802;2023-12-29T03:46:31;10.70;99.90
2577;DHT22;1298;51.252;6.802;2023-12-29T03:49:19;10.80;99.90
2577;DHT22;1298;51.252;6.802;2023-12-29T03:52:05;10.80;99.90
2577;DHT22;1298;51.252;6.802;2023-12-29T03:54:50;10.80;99.90
2577;DHT22;1298;51.252;6.802;2023-12-29T03:57:34;10.90;99.90
2577;DHT22;1298;51.252;6.802;2023-12-29T04:00:19;10.90;99.90
2577;DHT22;1298;51.252;6.802;2023-12-29T04:03:05;11.00;99.90
2577;DHT22;1298;51.252;6.802;2023-12-29T04:05:52;11.00;99.90
2577;DHT22;1298;51.252;6.802;2023-12-29T04:08:38;11.00;99.90
2577;DHT22;1298;51.252;6.802;2023-12-29T04:11:23;11.10;99.90
2577;DHT22;1298;51.252;6.802;2023-12-29T04:14:09;11.10;99.90
2577;DHT22;1298;51.252;6.802;2023-12-29T04:16:56;11.10;99.90
2577;DHT22;1298;51.252;6.802;2023-12-29T04:19:43;11.10;99.90
2577;DHT22;1298;51.252;6.802;2023-12-29T04:22:30;11.10;99.90
2577;DHT22;1298;51.252;6.802;2023-12-29T04:25:15;11.10;99.90
2577;DHT22;1298;51.252;6.802;2023-12-29T04:28:01;11.00;99.90
2577;DHT22;1298;51.252;6.802;2023-12-29T04:30:46;10.90;99.90
2577;DHT22;1298;51.252;6.802;2023-12-29T04:33:32;10.90;99.90
2577;DHT22;1298;51.252;6.802;2023-12-29T04:36:18;10.80;99.90
2577;DHT22;1298;51.252;6.802;2023-12-29T04:39:04;10.80;99.90
2577;DHT22;1298;51.252;6.802;2023-12-29T04:41:51;10.90;99.90
2577;DHT22;1298;51.252;6.802;2023-12-29T04:44:37;10.90;99.90
2577;DHT22;1298;51.252;6.802;2023-12-29T04:47:22;10.90;99.90
2577;DHT22;1298;51.252;6.802;2023-12-29T04:50:08;10.90;99.90
2577;DHT22;1298;51.252;6.802;2023-12-29T04:52:54;11.00;99.90
2577;DHT22;1298;51.252;6.802;2023-12-29T04:55:41;11.00;99.90
2577;DHT22;1298;51.252;6.802;2023-12-29T04:58:27;11.00;99.90
2577;DHT22;1298;51.252;6.802;2023-12-29T05:01:12;10.90;99.90
2577;DHT22;1298;51.252;6.802;2023-12-29T05:03:58;10.90;99.90
2577;DHT22;1298;51.252;6.802;2023-12-29T05:06:44;11.00;99.90
2577;DHT22;1298;51.252;6.802;2023-12-29T05:09:29;11.00;99.90
2577;DHT22;1298;51.252;6.802;2023-12-29T05:12:16;11.00;99.90
2577;DHT22;1298;51.252;6.802;2023-12-29T05:15:02;11.00;99.90
2577;DHT22;1298;51.252;6.802;2023-12-29T05:17:48;11.00;99.90
2577;DHT22;1298;51.252;6.802;2023-12-29T05:20:33;11.00;99.90
2577;DHT22;1298;51.252;6.802;2023-12-29T05:23:19;11.00;99.90
2577;DHT22;1298;51.252;6.802;2023-12-29T05:26:05;11.00;99.90
2577;DHT22;1298;51.252;6.802;2023-12-29T05:28:51;11.00;99.90
2577;DHT22;1298;51.252;6.802;2023-12-29T05:31:37;11.00;99.90
2577;DHT22;1298;51.252;6.802;2023-12-29T05:34:22;11.00;99.90
2577;DHT22;1298;51.252;6.802;2023-12-29T05:37:08;11.00;99.90
2577;DHT22;1298;51.252;6.802;2023-12-29T05:39:54;11.00;99.90
2577;DHT22;1298;51.252;6.802;2023-12-29T05:42:39;11.00;99.90
2577;DHT22;1298;51.252;6.802;2023-12-29T05:45:26;10.90;99.90
2577;DHT22;1298;51.252;6.802;2023-12-29T05:48:11;10.90;99.90
2577;DHT22;1298;51.252;6.802;2023-12-29T05:50:57;10.90;99.90
2577;DHT22;1298;51.252;6.802;2023-12-29T05:53:43;10.90;99.90
2577;DHT22;1298;51.252;6.802;2023-12-29T05:56:28;10.90;99.90
2577;DHT22;1298;51.252;6.802;2023-12-29T05:59:13;10.90;99.90
2577;DHT22;1298;51.252;6.802;2023-12-29T06:02:00;10.90;99.90
2577;DHT22;1298;51.252;6.802;2023-12-29T06:04:46;10.80;99.90
2577;DHT22;1298;51.252;6.802;2023-12-29T06:07:32;10.80;99.90
2577;DHT22;1298;51.252;6.802;2023-12-29T06:10:18;10.80;99.90
2577;DHT22;1298;51.252;6.802;2023-12-29T06:13:04;10.80;99.90
2577;DHT22;1298;51.252;6.802;2023-12-29T06:15:49;10.80;99.90
2577;DHT22;1298;51.252;6.802;2023-12-29T06:18:36;10.80;99.90
2577;DHT22;1298;51.252;6.802;2023-12-29T06:21:22;10.70;99.90
2577;DHT22;1298;51.252;6.802;2023-12-29T06:24:07;10.80;99.90
2577;DHT22;1298;51.252;6.802;2023-12-29T06:26:53;10.80;99.90
2577;DHT22;1298;51.252;6.802;2023-12-29T06:29:40;10.80;99.90
2577;DHT22;1298;51.252;6.802;2023-12-29T06:32:26;10.80;99.90
2577;DHT22;1298;51.252;6.802;2023-12-29T06:35:13;10.80;99.90
2577;DHT22;1298;51.252;6.802;2023-12-29T06:37:58;10.80;99.90
2577;DHT22;1298;51.252;6.802;2023-12-29T06:40:44;10.80;99.90
2577;DHT22;1298;51.252;6.802;2023-12-29T06:43:29;10.80;99.90
2577;DHT22;1298;51.252;6.802;2023-12-29T06:46:15;10.80;99.90
2577;DHT22;1298;51.252;6.802;2023-12-29T06:49:00;10.80;99.90
2577;DHT22;1298;51.252;6.802;2023-12-29T06:51:48;10.90;99.90
2577;DHT22;1298;51.252;6.802;2023-12-29T06:54:33;10.90;99.90
2577;DHT22;1298;51.252;6.802;2023-12-29T06:57:19;10.90;99.90
2577;DHT22;1298;51.252;6.802;2023-12-29T07:00:06;10.90;99.90
2577;DHT22;1298;51.252;6.802;2023-12-29T07:02:53;10.90;99.90
2577;DHT22;1298;51.252;6.802;2023-12-29T07:05:38;10.90;99.90
2577;DHT22;1298;51.252;6.802;2023-12-29T07:08:25;10.90;99.90
2577;DHT22;1298;51.252;6.802;2023-12-29T07:11:11;10.90;99.90
2577;DHT22;1298;51.252;6.802;2023-12-29T07:13:56;10.90;99.90
2577;DHT22;1298;51.252;6.802;2023-12-29T07:16:42;10.90;99.90
2577;DHT22;1298;51.252;6.802;2023-12-29T07:19:27;10.90;99.90
2577;DHT22;1298;51.252;6.802;2023-12-29T07:22:20;10.90;99.90
2577;DHT22;1298;51.252;6.802;2023-12-29T07:25:08;10.90;99.90
2577;DHT22;1298;51.252;6.802;2023-12-29T07:27:55;10.90;99.90
2577;DHT22;1298;51.252;6.802;2023-12-29T07:30:40;10.90;99.90
2577;DHT22;1298;51.252;6.802;2023-12-29T07:33:26;10.90;99.90
2577;DHT22;1298;51.252;6.802;2023-12-29T07:36:11;10.90;99.90
2577;DHT22;1298;51.252;6.802;2023-12-29T07:38:57;10.90;99.90
2577;DHT22;1298;51.252;6.802;2023-12-29T07:41:44;10.90;99.90
2577;DHT22;1298;51.252;6.802;2023-12-29T07:44:29;10.90;99.90
2577;DHT22;1298;51.252;6.802;2023-12-29T07:47:15;10.80;99.90
2577;DHT22;1298;51.252;6.802;2023-12-29T07:50:01;10.80;99.90
2577;DHT22;1298;51.252;6.802;2023-12-29T07:52:46;10.80;99.90
2577;DHT22;1298;51.252;6.802;2023-12-29T07:55:32;10.80;99.90
2577;DHT22;1298;51.252;6.802;2023-12-29T07:58:20;10.70;99.90
2577;DHT22;1298;51.252;6.802;2023-12-29T08:01:05;10.60;99.90
2577;DHT22;1298;51.252;6.802;2023-12-29T08:03:50;10.60;99.90
2577;DHT22;1298;51.252;6.802;2023-12-29T08:06:37;10.50;99.90
2577;DHT22;1298;51.252;6.802;2023-12-29T08:09:22;10.50;99.90
2577;DHT22;1298;51.252;6.802;2023-12-29T08:12:08;10.40;99.90
2577;DHT22;1298;51.252;6.802;2023-12-29T08:14:54;10.40;99.90
2577;DHT22;1298;51.252;6.802;2023-12-29T08:17:40;10.30;99.90
2577;DHT22;1298;51.252;6.802;2023-12-29T08:20:26;10.30;99.90
2577;DHT22;1298;51.252;6.802;2023-12-29T08:23:11;10.30;99.90
2577;DHT22;1298;51.252;6.802;2023-12-29T08:25:57;10.20;99.90
2577;DHT22;1298;51.252;6.802;2023-12-29T08:28:43;10.20;99.90
2577;DHT22;1298;51.252;6.802;2023-12-29T08:31:30;10.20;99.90
2577;DHT22;1298;51.252;6.802;2023-12-29T08:34:15;10.20;99.90
2577;DHT22;1298;51.252;6.802;2023-12-29T08:37:01;10.10;99.90
2577;DHT22;1298;51.252;6.802;2023-12-29T08:39:47;10.10;99.90
2577;DHT22;1298;51.252;6.802;2023-12-29T08:42:32;10.00;99.90
2577;DHT22;1298;51.252;6.802;2023-12-29T08:45:18;10.00;99.90
2577;DHT22;1298;51.252;6.802;2023-12-29T08:48:06;10.00;99.90
2577;DHT22;1298;51.252;6.802;2023-12-29T08:50:51;10.00;99.90
2577;DHT22;1298;51.252;6.802;2023-12-29T08:53:37;9.90;99.90
2577;DHT22;1298;51.252;6.802;2023-12-29T08:56:22;9.90;99.90
2577;DHT22;1298;51.252;6.802;2023-12-29T08:59:08;9.90;99.90
2577;DHT22;1298;51.252;6.802;2023-12-29T09:01:53;10.00;99.90
2577;DHT22;1298;51.252;6.802;2023-12-29T09:04:40;9.90;99.90
2577;DHT22;1298;51.252;6.802;2023-12-29T09:07:26;9.90;99.90
2577;DHT22;1298;51.252;6.802;2023-12-29T09:10:12;10.00;99.90
2577;DHT22;1298;51.252;6.802;2023-12-29T09:12:58;9.90;99.90
2577;DHT22;1298;51.252;6.802;2023-12-29T09:15:44;9.90;99.90
2577;DHT22;1298;51.252;6.802;2023-12-29T09:18:29;9.90;99.90
2577;DHT22;1298;51.252;6.802;2023-12-29T09:21:16;10.00;99.90
2577;DHT22;1298;51.252;6.802;2023-12-29T09:24:03;10.00;99.90
2577;DHT22;1298;51.252;6.802;2023-12-29T09:26:49;10.00;99.90
2577;DHT22;1298;51.252;6.802;2023-12-29T09:29:35;10.00;99.90
2577;DHT22;1298;51.252;6.802;2023-12-29T09:32:21;10.00;99.90
2577;DHT22;1298;51.252;6.802;2023-12-29T09:35:07;10.10;99.90
2577;DHT22;1298;51.252;6.802;2023-12-29T09:37:54;10.10;99.90
2577;DHT22;1298;51.252;6.802;2023-12-29T09:40:40;10.10;99.90
2577;DHT22;1298;51.252;6.802;2023-12-29T09:43:26;10.20;99.90
2577;DHT22;1298;51.252;6.802;2023-12-29T09:46:13;10.10;99.90
2577;DHT22;1298;51.252;6.802;2023-12-29T09:49:03;10.10;99.90
2577;DHT22;1298;51.252;6.802;2023-12-29T09:51:49;10.00;99.90
2577;DHT22;1298;51.252;6.802;2023-12-29T09:54:36;9.90;99.90
2577;DHT22;1298;51.252;6.802;2023-12-29T09:57:23;9.90;99.90
2577;DHT22;1298;51.252;6.802;2023-12-29T10:00:11;9.90;99.90
2577;DHT22;1298;51.252;6.802;2023-12-29T10:02:58;9.90;99.90
2577;DHT22;1298;51.252;6.802;2023-12-29T10:05:48;9.80;99.90
2577;DHT22;1298;51.252;6.802;2023-12-29T10:08:37;9.80;99.90
2577;DHT22;1298;51.252;6.802;2023-12-29T10:11:25;9.80;99.90
2577;DHT22;1298;51.252;6.802;2023-12-29T10:14:20;9.80;99.90
2577;DHT22;1298;51.252;6.802;2023-12-29T10:17:12;9.80;99.90
2577;DHT22;1298;51.252;6.802;2023-12-29T10:20:06;9.80;99.90
2577;DHT22;1298;51.252;6.802;2023-12-29T10:23:05;9.80;99.90
2577;DHT22;1298;51.252;6.802;2023-12-29T10:25:52;9.80;99.90
2577;DHT22;1298;51.252;6.802;2023-12-29T10:28:39;9.80;99.90
2577;DHT22;1298;51.252;6.802;2023-12-29T10:31:25;9.80;99.90
2577;DHT22;1298;51.252;6.802;2023-12-29T10:34:17;9.90;99.90
2577;DHT22;1298;51.252;6.802;2023-12-29T10:37:03;10.00;99.90
2577;DHT22;1298;51.252;6.802;2023-12-29T10:39:56;10.00;99.90
2577;DHT22;1298;51.252;6.802;2023-12-29T10:42:51;10.00;99.90
2577;DHT22;1298;51.252;6.802;2023-12-29T10:45:38;10.10;99.90
2577;DHT22;1298;51.252;6.802;2023-12-29T10:48:23;10.10;99.90
2577;DHT22;1298;51.252;6.802;2023-12-29T10:51:10;10.20;99.90
2577;DHT22;1298;51.252;6.802;2023-12-29T10:53:55;10.20;99.90
2577;DHT22;1298;51.252;6.802;2023-12-29T10:56:41;10.20;99.90
2577;DHT22;1298;51.252;6.802;2023-12-29T10:59:26;10.20;99.90
2577;DHT22;1298;51.252;6.802;2023-12-29T11:02:13;10.30;99.90
2577;DHT22;1298;51.252;6.802;2023-12-29T11:05:04;10.30;99.90
2577;DHT22;1298;51.252;6.802;2023-12-29T11:07:52;10.50;99.90
2577;DHT22;1298;51.252;6.802;2023-12-29T11:10:38;10.50;99.90
2577;DHT22;1298;51.252;6.802;2023-12-29T11:13:24;10.50;99.90
2577;DHT22;1298;51.252;6.802;2023-12-29T11:16:11;10.60;99.90
2577;DHT22;1298;51.252;6.802;2023-12-29T11:18:58;10.70;99.90
2577;DHT22;1298;51.252;6.802;2023-12-29T11:21:46;10.80;99.90
2577;DHT22;1298;51.252;6.802;2023-12-29T11:24:32;10.80;99.90
2577;DHT22;1298;51.252;6.802;2023-12-29T11:27:18;11.00;99.90
2577;DHT22;1298;51.252;6.802;2023-12-29T11:30:05;11.00;99.90
2577;DHT22;1298;51.252;6.802;2023-12-29T11:32:55;11.10;99.90
2577;DHT22;1298;51.252;6.802;2023-12-29T11:35:45;11.10;99.90
2577;DHT22;1298;51.252;6.802;2023-12-29T11:38:45;11.20;99.90
2577;DHT22;1298;51.252;6.802;2023-12-29T11:41:38;11.20;99.90
2577;DHT22;1298;51.252;6.802;2023-12-29T11:44:25;11.20;99.90
2577;DHT22;1298;51.252;6.802;2023-12-29T11:47:36;11.10;99.90
2577;DHT22;1298;51.252;6.802;2023-12-29T11:50:31;10.90;99.90
2577;DHT22;1298;51.252;6.802;2023-12-29T11:53:31;10.90;99.90
2577;DHT22;1298;51.252;6.802;2023-12-29T11:56:17;10.80;99.90
2577;DHT22;1298;51.252;6.802;2023-12-29T11:59:13;10.70;99.90
2577;DHT22;1298;51.252;6.802;2023-12-29T12:01:59;10.70;99.90
2577;DHT22;1298;51.252;6.802;2023-12-29T12:04:45;10.60;99.90
2577;DHT22;1298;51.252;6.802;2023-12-29T12:07:58;10.70;99.90
2577;DHT22;1298;51.252;6.802;2023-12-29T12:10:46;10.70;99.90
2577;DHT22;1298;51.252;6.802;2023-12-29T12:13:43;10.70;99.90
2577;DHT22;1298;51.252;6.802;2023-12-29T12:16:56;10.40;99.90
2577;DHT22;1298;51.252;6.802;2023-12-29T12:19:43;10.10;99.90
2577;DHT22;1298;51.252;6.802;2023-12-29T12:22:30;10.00;99.90
2577;DHT22;1298;51.252;6.802;2023-12-29T12:25:16;9.80;99.90
2577;DHT22;1298;51.252;6.802;2023-12-29T12:28:07;9.80;99.90
2577;DHT22;1298;51.252;6.802;2023-12-29T12:30:52;9.80;99.90
2577;DHT22;1298;51.252;6.802;2023-12-29T12:33:53;9.90;99.90
2577;DHT22;1298;51.252;6.802;2023-12-29T12:36:47;10.00;99.90
2577;DHT22;1298;51.252;6.802;2023-12-29T12:39:39;10.10;99.90
2577;DHT22;1298;51.252;6.802;2023-12-29T12:42:25;10.20;99.90
2577;DHT22;1298;51.252;6.802;2023-12-29T12:45:13;10.40;99.90
2577;DHT22;1298;51.252;6.802;2023-12-29T12:48:09;10.50;99.90
2577;DHT22;1298;51.252;6.802;2023-12-29T12:50:57;10.60;99.90
2577;DHT22;1298;51.252;6.802;2023-12-29T12:53:44;10.70;99.90
2577;DHT22;1298;51.252;6.802;2023-12-29T12:56:31;10.70;99.90
2577;DHT22;1298;51.252;6.802;2023-12-29T12:59:16;10.60;99.90
2577;DHT22;1298;51.252;6.802;2023-12-29T13:02:04;10.60;99.90
2577;DHT22;1298;51.252;6.802;2023-12-29T13:04:51;10.50;99.90
2577;DHT22;1298;51.252;6.802;2023-12-29T13:07:37;10.50;99.90
2577;DHT22;1298;51.252;6.802;2023-12-29T13:10:23;10.50;99.90
2577;DHT22;1298;51.252;6.802;2023-12-29T13:13:09;10.50;99.90
2577;DHT22;1298;51.252;6.802;2023-12-29T13:15:55;10.40;99.90
2577;DHT22;1298;51.252;6.802;2023-12-29T13:18:42;10.40;99.90
2577;DHT22;1298;51.252;6.802;2023-12-29T13:21:29;10.40;99.90
2577;DHT22;1298;51.252;6.802;2023-12-29T13:24:14;10.50;99.90
2577;DHT22;1298;51.252;6.802;2023-12-29T13:27:04;10.50;99.90
2577;DHT22;1298;51.252;6.802;2023-12-29T13:29:50;10.60;99.90
2577;DHT22;1298;51.252;6.802;2023-12-29T13:32:36;10.60;99.90
2577;DHT22;1298;51.252;6.802;2023-12-29T13:35:30;10.70;99.90
2577;DHT22;1298;51.252;6.802;2023-12-29T13:38:19;10.80;99.90
2577;DHT22;1298;51.252;6.802;2023-12-29T13:41:09;10.90;99.90
2577;DHT22;1298;51.252;6.802;2023-12-29T13:43:57;10.90;99.90
2577;DHT22;1298;51.252;6.802;2023-12-29T13:46:44;11.00;99.90
2577;DHT22;1298;51.252;6.802;2023-12-29T13:49:30;11.00;99.90
2577;DHT22;1298;51.252;6.802;2023-12-29T13:52:20;11.00;99.90
2577;DHT22;1298;51.252;6.802;2023-12-29T13:55:07;11.10;99.90
2577;DHT22;1298;51.252;6.802;2023-12-29T13:57:52;11.00;99.90
2577;DHT22;1298;51.252;6.802;2023-12-29T14:00:40;11.10;99.90
2577;DHT22;1298;51.252;6.802;2023-12-29T14:03:27;11.10;99.90
2577;DHT22;1298;51.252;6.802;2023-12-29T14:06:20;11.10;99.90
2577;DHT22;1298;51.252;6.802;2023-12-29T14:09:14;11.10;99.90
2577;DHT22;1298;51.252;6.802;2023-12-29T14:12:00;11.20;99.90
2577;DHT22;1298;51.252;6.802;2023-12-29T14:14:46;11.10;99.90
2577;DHT22;1298;51.252;6.802;2023-12-29T14:17:31;11.00;99.90
2577;DHT22;1298;51.252;6.802;2023-12-29T14:20:32;10.80;99.90
2577;DHT22;1298;51.252;6.802;2023-12-29T14:23:19;10.70;99.90
2577;DHT22;1298;51.252;6.802;2023-12-29T14:26:06;10.60;99.90
2577;DHT22;1298;51.252;6.802;2023-12-29T14:29:01;10.50;99.90
2577;DHT22;1298;51.252;6.802;2023-12-29T14:31:47;10.50;99.90
2577;DHT22;1298;51.252;6.802;2023-12-29T14:34:32;10.40;99.90
2577;DHT22;1298;51.252;6.802;2023-12-29T14:37:18;10.40;99.90
2577;DHT22;1298;51.252;6.802;2023-12-29T14:40:05;10.30;99.90
2577;DHT22;1298;51.252;6.802;2023-12-29T14:42:52;10.30;99.90
2577;DHT22;1298;51.252;6.802;2023-12-29T14:45:40;10.20;99.90
2577;DHT22;1298;51.252;6.802;2023-12-29T14:48:25;10.30;99.90
2577;DHT22;1298;51.252;6.802;2023-12-29T14:51:11;10.20;99.90
2577;DHT22;1298;51.252;6.802;2023-12-29T14:53:56;10.10;99.90
2577;DHT22;1298;51.252;6.802;2023-12-29T14:56:45;10.00;99.90
2577;DHT22;1298;51.252;6.802;2023-12-29T14:59:32;10.00;99.90
2577;DHT22;1298;51.252;6.802;2023-12-29T15:02:17;10.00;99.90
2577;DHT22;1298;51.252;6.802;2023-12-29T15:05:03;9.90;99.90
2577;DHT22;1298;51.252;6.802;2023-12-29T15:07:49;9.90;99.90
2577;DHT22;1298;51.252;6.802;2023-12-29T15:10:35;9.90;99.90
2577;DHT22;1298;51.252;6.802;2023-12-29T15:13:20;9.90;99.90
2577;DHT22;1298;51.252;6.802;2023-12-29T15:16:08;9.90;99.90
2577;DHT22;1298;51.252;6.802;2023-12-29T15:18:53;9.90;99.90
2577;DHT22;1298;51.252;6.802;2023-12-29T15:21:39;9.90;99.90
2577;DHT22;1298;51.252;6.802;2023-12-29T15:24:24;10.00;99.90
2577;DHT22;1298;51.252;6.802;2023-12-29T15:27:10;10.00;99.90
2577;DHT22;1298;51.252;6.802;2023-12-29T15:29:56;10.00;99.90
2577;DHT22;1298;51.252;6.802;2023-12-29T15:32:43;10.10;99.90
2577;DHT22;1298;51.252;6.802;2023-12-29T15:35:28;10.10;99.90
2577;DHT22;1298;51.252;6.802;2023-12-29T15:38:14;10.20;99.90
2577;DHT22;1298;51.252;6.802;2023-12-29T15:41:00;10.30;99.90
2577;DHT22;1298;51.252;6.802;2023-12-29T15:43:45;10.30;99.90
2577;DHT22;1298;51.252;6.802;2023-12-29T15:46:31;10.40;99.90
2577;DHT22;1298;51.252;6.802;2023-12-29T15:49:18;10.50;99.90
2577;DHT22;1298;51.252;6.802;2023-12-29T15:52:04;10.50;99.90
2577;DHT22;1298;51.252;6.802;2023-12-29T15:54:49;10.50;99.90
2577;DHT22;1298;51.252;6.802;2023-12-29T15:57:35;10.60;99.90
2577;DHT22;1298;51.252;6.802;2023-12-29T16:00:21;10.60;99.90
2577;DHT22;1298;51.252;6.802;2023-12-29T16:03:07;10.50;99.90
2577;DHT22;1298;51.252;6.802;2023-12-29T16:05:54;10.40;99.90
2577;DHT22;1298;51.252;6.802;2023-12-29T16:08:40;10.30;99.90
2577;DHT22;1298;51.252;6.802;2023-12-29T16:11:27;10.30;99.90
2577;DHT22;1298;51.252;6.802;2023-12-29T16:14:13;10.20;99.90
2577;DHT22;1298;51.252;6.802;2023-12-29T16:16:59;10.30;99.90
2577;DHT22;1298;51.252;6.802;2023-12-29T16:19:44;10.30;99.90
2577;DHT22;1298;51.252;6.802;2023-12-29T16:22:32;10.20;99.90
2577;DHT22;1298;51.252;6.802;2023-12-29T16:25:17;10.30;99.90
2577;DHT22;1298;51.252;6.802;2023-12-29T16:28:03;10.20;99.90
2577;DHT22;1298;51.252;6.802;2023-12-29T16:30:49;10.30;99.90
2577;DHT22;1298;51.252;6.802;2023-12-29T16:33:35;10.30;99.90
2577;DHT22;1298;51.252;6.802;2023-12-29T16:36:21;10.30;99.90
2577;DHT22;1298;51.252;6.802;2023-12-29T16:39:08;10.30;99.90
2577;DHT22;1298;51.252;6.802;2023-12-29T16:41:54;10.30;99.90
2577;DHT22;1298;51.252;6.802;2023-12-29T16:44:40;10.20;99.90
2577;DHT22;1298;51.252;6.802;2023-12-29T16:47:26;10.20;99.90
2577;DHT22;1298;51.252;6.802;2023-12-29T16:50:11;10.20;99.90
2577;DHT22;1298;51.252;6.802;2023-12-29T16:52:57;10.20;99.90
2577;DHT22;1298;51.252;6.802;2023-12-29T16:55:44;10.20;99.90
2577;DHT22;1298;51.252;6.802;2023-12-29T16:58:30;10.20;99.90
2577;DHT22;1298;51.252;6.802;2023-12-29T17:01:16;10.20;99.90
2577;DHT22;1298;51.252;6.802;2023-12-29T17:04:02;10.30;99.90
2577;DHT22;1298;51.252;6.802;2023-12-29T17:06:48;10.30;99.90
2577;DHT22;1298;51.252;6.802;2023-12-29T17:09:36;10.40;99.90
2577;DHT22;1298;51.252;6.802;2023-12-29T17:12:23;10.50;99.90
2577;DHT22;1298;51.252;6.802;2023-12-29T17:15:11;10.60;99.90
2577;DHT22;1298;51.252;6.802;2023-12-29T17:17:56;10.70;99.90
2577;DHT22;1298;51.252;6.802;2023-12-29T17:20:42;10.70;99.90
2577;DHT22;1298;51.252;6.802;2023-12-29T17:23:27;10.70;99.90
2577;DHT22;1298;51.252;6.802;2023-12-29T17:26:13;10.70;99.90
2577;DHT22;1298;51.252;6.802;2023-12-29T17:29:01;10.70;99.90
2577;DHT22;1298;51.252;6.802;2023-12-29T17:31:47;10.70;99.90
2577;DHT22;1298;51.252;6.802;2023-12-29T17:34:33;10.70;99.90
2577;DHT22;1298;51.252;6.802;2023-12-29T17:37:19;10.70;99.90
2577;DHT22;1298;51.252;6.802;2023-12-29T17:40:05;10.60;99.90
2577;DHT22;1298;51.252;6.802;2023-12-29T17:42:51;10.60;99.90
2577;DHT22;1298;51.252;6.802;2023-12-29T17:45:38;10.60;99.90
2577;DHT22;1298;51.252;6.802;2023-12-29T17:48:23;10.50;99.90
2577;DHT22;1298;51.252;6.802;2023-12-29T17:51:09;10.50;99.90
2577;DHT22;1298;51.252;6.802;2023-12-29T17:53:54;10.40;99.90
2577;DHT22;1298;51.252;6.802;2023-12-29T17:56:40;10.40;99.90
2577;DHT22;1298;51.252;6.802;2023-12-29T17:59:26;10.30;99.90
2577;DHT22;1298;51.252;6.802;2023-12-29T18:02:13;10.40;99.90
2577;DHT22;1298;51.252;6.802;2023-12-29T18:04:58;10.50;99.90
2577;DHT22;1298;51.252;6.802;2023-12-29T18:07:44;10.50;99.90
2577;DHT22;1298;51.252;6.802;2023-12-29T18:10:30;10.50;99.90